Time;durP1;ratioP1;P1;durP2;ratioP2;P2;SDS_P1;SDS_P2;PMS_P1;PMS_P2;Temp;Humidity;BMP_temperature;BMP_pressure;BME280_temperature;BME280_humidity;BME280_pressure;Samples;Min_cycle;Max_cycle;Signal;HPM_P1;HPM_P2
2022/12/10 00:02:26;;;;;;;;;;;;;;;;;;4959493;28;19921;-54
2022/12/10 00:04:51;;;;;;;;;;;;;;;;;;4963989;28;20040;-54
2022/12/10 00:07:17;;;;;;;;;;;;;;;;;;4965564;28;20555;-53
2022/12/10 00:09:43;;;;;;;;;;;;;;;;;;4965941;28;19984;-54
2022/12/10 00:12:09;;;;;;;;;;;;;;;;;;4966972;28;19926;-53
2022/12/10 00:14:35;;;;;;;;;;;;;;;;;;4953759;28;20515;-54
2022/12/10 00:17:01;;;;;;;;;;;;;;;;;;4967048;28;19924;-54
2022/12/10 00:19:27;;;;;;;;;;;;;;;;;;4946360;28;20916;-54
2022/12/10 00:21:52;;;;;;;;;;;;;;;;;;4957756;28;19926;-53
2022/12/10 00:24:18;;;;;;;;;;;;;;;;;;4965606;28;20349;-54
2022/12/10 00:26:45;;;;;;;;;;;;;;;;;;4977243;28;19945;-53
2022/12/10 00:29:11;;;;;;;;;;;;;;;;;;4973722;28;20412;-55
2022/12/10 00:31:37;;;;;;;;;;;;;;;;;;4964122;28;20268;-53
2022/12/10 00:34:03;;;;;;;;;;;;;;;;;;4975365;28;20380;-53
2022/12/10 00:36:29;;;;;;;;;;;;;;;;;;4973208;28;19932;-53
2022/12/10 00:38:55;;;;;;;;;;;;;;;;;;4997739;28;20525;-53
2022/12/10 00:41:21;;;;;;;;;;;;;;;;;;4970575;28;20303;-55
2022/12/10 00:43:47;;;;;;;;;;;;;;;;;;4966284;28;20521;-54
2022/12/10 00:46:13;;;;;;;;;;;;;;;;;;4967216;28;19930;-53
2022/12/10 00:48:39;;;;;;;;;;;;;;;;;;4983523;28;19925;-54
2022/12/10 00:51:04;;;;;;;;;;;;;;;;;;4896535;28;20162;-54
2022/12/10 00:53:30;;;;;;;;;;;;;;;;;;4922101;28;21760;-55
2022/12/10 00:55:56;;;;;;;;;;;;;;;;;;4951173;28;20478;-54
2022/12/10 00:58:22;;;;;;;;;;;;;;;;;;4960274;28;19922;-53
2022/12/10 01:00:48;;;;;;;;;;;;;;;;;;4917975;28;20017;-54
2022/12/10 01:03:14;;;;;;;;;;;;;;;;;;4960643;28;19948;-54
2022/12/10 01:05:40;;;;;;;;;;;;;;;;;;4966583;28;20032;-55
2022/12/10 01:08:06;;;;;;;;;;;;;;;;;;4963587;28;20245;-55
2022/12/10 01:10:32;;;;;;;;;;;;;;;;;;4964985;28;20024;-54
2022/12/10 01:12:57;;;;;;;;;;;;;;;;;;4963740;28;19932;-53
2022/12/10 01:15:23;;;;;;;;;;;;;;;;;;4967878;28;19926;-53
2022/12/10 01:17:49;;;;;;;;;;;;;;;;;;4975542;28;20356;-53
2022/12/10 01:20:15;;;;;;;;;;;;;;;;;;4973167;28;19918;-53
2022/12/10 01:22:41;;;;;;;;;;;;;;;;;;4992630;28;19976;-55
2022/12/10 01:25:07;;;;;;;;;;;;;;;;;;4957580;28;19933;-53
2022/12/10 01:27:33;;;;;;;;;;;;;;;;;;4985867;28;20234;-54
2022/12/10 01:29:58;;;;;;;;;;;;;;;;;;4978379;28;19929;-54
2022/12/10 01:32:24;;;;;;;;;;;;;;;;;;4976194;28;20454;-54
2022/12/10 01:34:50;;;;;;;;;;;;;;;;;;4964993;28;20001;-54
2022/12/10 01:37:16;;;;;;;;;;;;;;;;;;4976677;28;20052;-53
2022/12/10 01:39:42;;;;;;;;;;;;;;;;;;4973962;28;20363;-54
2022/12/10 01:42:08;;;;;;;;;;;;;;;;;;4960581;28;19930;-54
2022/12/10 01:44:34;;;;;;;;;;;;;;;;;;4974613;28;20191;-54
2022/12/10 01:47:00;;;;;;;;;;;;;;;;;;4973395;28;20039;-54
2022/12/10 01:49:26;;;;;;;;;;;;;;;;;;4980491;28;19925;-53
2022/12/10 01:51:52;;;;;;;;;;;;;;;;;;4989514;28;20357;-53
2022/12/10 01:54:18;;;;;;;;;;;;;;;;;;4989054;28;19921;-52
2022/12/10 01:56:44;;;;;;;;;;;;;;;;;;4983694;28;19926;-53
2022/12/10 01:59:10;;;;;;;;;;;;;;;;;;4976795;28;19921;-53
2022/12/10 02:01:36;;;;;;;;;;;;;;;;;;4962282;28;19926;-54
2022/12/10 02:04:01;;;;;;;;;;;;;;;;;;4971763;28;19944;-53
2022/12/10 02:06:27;;;;;;;;;;;;;;;;;;4985100;28;19921;-54
2022/12/10 02:08:53;;;;;;;;;;;;;;;;;;4972892;28;20311;-53
2022/12/10 02:11:19;;;;;;;;;;;;;;;;;;4952844;28;19932;-53
2022/12/10 02:13:45;;;;;;;;;;;;;;;;;;4954122;28;19926;-53
2022/12/10 02:16:11;;;;;;;;;;;;;;;;;;4960611;28;20498;-52
2022/12/10 02:18:37;;;;;;;;;;;;;;;;;;4960026;28;19992;-53
2022/12/10 02:21:02;;;;;;;;;;;;;;;;;;4968957;28;19925;-52
2022/12/10 02:23:28;;;;;;;;;;;;;;;;;;4987163;28;19921;-54
2022/12/10 02:25:54;;;;;;;;;;;;;;;;;;4978819;28;20342;-53
2022/12/10 02:28:20;;;;;;;;;;;;;;;;;;4979912;28;20618;-53
2022/12/10 02:30:46;;;;;;;;;;;;;;;;;;4973299;28;19925;-53
2022/12/10 02:33:12;;;;;;;;;;;;;;;;;;4978763;28;20023;-53
2022/12/10 02:35:38;;;;;;;;;;;;;;;;;;4973596;28;19957;-53
2022/12/10 02:38:04;;;;;;;;;;;;;;;;;;4982039;28;19924;-54
2022/12/10 02:40:30;;;;;;;;;;;;;;;;;;4969763;28;19952;-54
2022/12/10 02:42:56;;;;;;;;;;;;;;;;;;4981075;28;20337;-53
2022/12/10 02:45:21;;;;;;;;;;;;;;;;;;4963994;28;20534;-53
2022/12/10 02:47:47;;;;;;;;;;;;;;;;;;4970472;28;20557;-55
2022/12/10 02:50:13;;;;;;;;;;;;;;;;;;4979973;28;19925;-53
2022/12/10 02:52:39;;;;;;;;;;;;;;;;;;4984749;28;20405;-53
2022/12/10 02:55:05;;;;;;;;;;;;;;;;;;4991627;28;19990;-54
2022/12/10 02:57:31;;;;;;;;;;;;;;;;;;4976839;28;19921;-53
2022/12/10 02:59:57;;;;;;;;;;;;;;;;;;4986504;28;20395;-53
2022/12/10 03:02:23;;;;;;;;;;;;;;;;;;4969289;28;19921;-54
2022/12/10 03:04:49;;;;;;;;;;;;;;;;;;4971853;28;20337;-52
2022/12/10 03:07:15;;;;;;;;;;;;;;;;;;4982280;28;20140;-54
2022/12/10 03:09:41;;;;;;;;;;;;;;;;;;4972331;28;19983;-53
2022/12/10 03:12:07;;;;;;;;;;;;;;;;;;4976268;28;20169;-53
2022/12/10 03:14:33;;;;;;;;;;;;;;;;;;4979917;28;19926;-55
2022/12/10 03:16:59;;;;;;;;;;;;;;;;;;4964851;28;19949;-54
2022/12/10 03:19:24;;;;;;;;;;;;;;;;;;4981525;28;19921;-54
2022/12/10 03:21:50;;;;;;;;;;;;;;;;;;4979220;28;19923;-55
2022/12/10 03:24:16;;;;;;;;;;;;;;;;;;4984877;28;19917;-54
2022/12/10 03:26:42;;;;;;;;;;;;;;;;;;4973587;28;19930;-54
2022/12/10 03:29:08;;;;;;;;;;;;;;;;;;4970905;28;20441;-54
2022/12/10 03:31:34;;;;;;;;;;;;;;;;;;4975060;28;19922;-53
2022/12/10 03:34:00;;;;;;;;;;;;;;;;;;4972749;28;19947;-52
2022/12/10 03:36:26;;;;;;;;;;;;;;;;;;4957790;28;20369;-54
2022/12/10 03:38:51;;;;;;;;;;;;;;;;;;4967054;28;19929;-55
2022/12/10 03:41:17;;;;;;;;;;;;;;;;;;4964200;28;19921;-53
2022/12/10 03:43:43;;;;;;;;;;;;;;;;;;4967703;28;19933;-54
2022/12/10 03:46:09;;;;;;;;;;;;;;;;;;4968943;28;20046;-53
2022/12/10 03:48:35;;;;;;;;;;;;;;;;;;4974250;28;19932;-54
2022/12/10 03:51:01;;;;;;;;;;;;;;;;;;4970432;28;19925;-53
2022/12/10 03:53:27;;;;;;;;;;;;;;;;;;4984775;28;20485;-54
2022/12/10 03:55:53;;;;;;;;;;;;;;;;;;4978728;28;19928;-54
2022/12/10 03:58:19;;;;;;;;;;;;;;;;;;4980223;28;19925;-53
2022/12/10 04:00:45;;;;;;;;;;;;;;;;;;4979205;28;19928;-53
2022/12/10 04:03:11;;;;;;;;;;;;;;;;;;4981583;28;20347;-54
2022/12/10 04:05:37;;;;;;;;;;;;;;;;;;4968465;28;19926;-53
2022/12/10 04:08:03;;;;;;;;;;;;;;;;;;4989743;28;20601;-54
2022/12/10 04:10:29;;;;;;;;;;;;;;;;;;4976214;28;20445;-53
2022/12/10 04:18:24;;;;;;;;;;;;;;;;;;4978553;28;19968;-53
2022/12/10 04:29:04;;;;;;;;;;;;;;;;;;4965059;28;19927;-54
2022/12/10 04:31:30;;;;;;;;;;;;;;;;;;4976879;28;19925;-53
2022/12/10 04:33:56;;;;;;;;;;;;;;;;;;4964532;28;19918;-52
2022/12/10 04:36:22;;;;;;;;;;;;;;;;;;4990199;28;19921;-53
2022/12/10 04:38:48;;;;;;;;;;;;;;;;;;4984637;28;20912;-53
2022/12/10 04:41:15;;;;;;;;;;;;;;;;;;5004847;28;20424;-54
2022/12/10 04:43:41;;;;;;;;;;;;;;;;;;4994451;28;20268;-55
2022/12/10 04:46:06;;;;;;;;;;;;;;;;;;5001794;28;19924;-53
2022/12/10 04:48:32;;;;;;;;;;;;;;;;;;4995473;28;19928;-53
2022/12/10 04:50:58;;;;;;;;;;;;;;;;;;4984732;28;19925;-53
2022/12/10 04:53:24;;;;;;;;;;;;;;;;;;4958674;28;21186;-53
2022/12/10 04:55:50;;;;;;;;;;;;;;;;;;4951700;28;19922;-54
2022/12/10 04:58:16;;;;;;;;;;;;;;;;;;4980477;28;20218;-54
2022/12/10 05:00:42;;;;;;;;;;;;;;;;;;4959050;28;19921;-54
2022/12/10 05:03:07;;;;;;;;;;;;;;;;;;4978764;28;20031;-54
2022/12/10 05:05:33;;;;;;;;;;;;;;;;;;4968853;28;20451;-53
2022/12/10 05:07:59;;;;;;;;;;;;;;;;;;4968996;28;19969;-54
2022/12/10 05:10:26;;;;;;;;;;;;;;;;;;4957505;28;19923;-53
2022/12/10 05:12:52;;;;;;;;;;;;;;;;;;4958039;28;19989;-54
2022/12/10 05:15:18;;;;;;;;;;;;;;;;;;4969895;28;19926;-54
2022/12/10 05:17:43;;;;;;;;;;;;;;;;;;4972985;28;21770;-53
2022/12/10 05:20:09;;;;;;;;;;;;;;;;;;4975964;28;19922;-53
2022/12/10 05:25:20;;;;;;;;;;;;;;;;;;4952280;28;19983;-53
2022/12/10 05:27:46;;;;;;;;;;;;;;;;;;4996580;28;19933;-54
2022/12/10 05:30:12;;;;;;;;;;;;;;;;;;4975591;28;19935;-54
2022/12/10 05:32:38;;;;;;;;;;;;;;;;;;4971962;28;19944;-54
2022/12/10 05:35:04;;;;;;;;;;;;;;;;;;4968851;28;20442;-55
2022/12/10 05:37:30;;;;;;;;;;;;;;;;;;4977716;28;19925;-53
2022/12/10 05:39:55;;;;;;;;;;;;;;;;;;4974345;28;19933;-53
2022/12/10 05:42:21;;;;;;;;;;;;;;;;;;4975566;28;20044;-54
2022/12/10 05:44:47;;;;;;;;;;;;;;;;;;4962665;28;19922;-54
2022/12/10 05:47:13;;;;;;;;;;;;;;;;;;4978154;28;19928;-53
2022/12/10 05:49:39;;;;;;;;;;;;;;;;;;4982398;28;20375;-54
2022/12/10 05:52:05;;;;;;;;;;;;;;;;;;4994826;28;19928;-54
2022/12/10 05:54:31;;;;;;;;;;;;;;;;;;4982709;28;20371;-54
2022/12/10 05:56:56;;;;;;;;;;;;;;;;;;4988228;28;19922;-53
2022/12/10 05:59:22;;;;;;;;;;;;;;;;;;4969360;28;20374;-54
2022/12/10 06:01:48;;;;;;;;;;;;;;;;;;4973614;28;19929;-53
2022/12/10 06:04:14;;;;;;;;;;;;;;;;;;4973033;28;19916;-53
2022/12/10 06:06:40;;;;;;;;;;;;;;;;;;4975440;28;19925;-54
2022/12/10 06:09:06;;;;;;;;;;;;;;;;;;4977108;28;20603;-55
2022/12/10 06:11:32;;;;;;;;;;;;;;;;;;4987361;28;19922;-54
2022/12/10 06:13:58;;;;;;;;;;;;;;;;;;4964777;28;20669;-55
2022/12/10 06:16:24;;;;;;;;;;;;;;;;;;4975435;28;19917;-54
2022/12/10 06:18:50;;;;;;;;;;;;;;;;;;4974788;28;19925;-53
2022/12/10 06:21:16;;;;;;;;;;;;;;;;;;4976979;28;20067;-53
2022/12/10 06:23:42;;;;;;;;;;;;;;;;;;4968465;28;19926;-54
2022/12/10 06:26:07;;;;;;;;;;;;;;;;;;4964887;28;20869;-53
2022/12/10 06:28:33;;;;;;;;;;;;;;;;;;4970563;28;19937;-53
2022/12/10 06:30:59;;;;;;;;;;;;;;;;;;4979804;28;20462;-53
2022/12/10 06:33:25;;;;;;;;;;;;;;;;;;4983866;28;19925;-53
2022/12/10 06:35:51;;;;;;;;;;;;;;;;;;4985405;28;19968;-53
2022/12/10 06:38:17;;;;;;;;;;;;;;;;;;4979480;28;20570;-54
2022/12/10 06:40:43;;;;;;;;;;;;;;;;;;4959421;28;21428;-54
2022/12/10 06:43:09;;;;;;;;;;;;;;;;;;4970484;28;20445;-53
2022/12/10 06:45:34;;;;;;;;;;;;;;;;;;4983345;28;20305;-53
2022/12/10 06:48:00;;;;;;;;;;;;;;;;;;4987668;28;19929;-54
2022/12/10 06:50:26;;;;;;;;;;;;;;;;;;4970529;28;19987;-54
2022/12/10 06:52:52;;;;;;;;;;;;;;;;;;4980000;28;19918;-54
2022/12/10 06:55:18;;;;;;;;;;;;;;;;;;4928668;28;19926;-53
2022/12/10 06:57:44;;;;;;;;;;;;;;;;;;4957666;28;20554;-54
2022/12/10 07:00:10;;;;;;;;;;;;;;;;;;4958084;28;19933;-54
2022/12/10 07:02:36;;;;;;;;;;;;;;;;;;4967398;28;20306;-54
2022/12/10 07:05:02;;;;;;;;;;;;;;;;;;4971979;28;19928;-54
2022/12/10 07:07:27;;;;;;;;;;;;;;;;;;4974727;28;19929;-53
2022/12/10 07:09:53;;;;;;;;;;;;;;;;;;4995903;28;19929;-54
2022/12/10 07:12:19;;;;;;;;;;;;;;;;;;4987571;28;20042;-53
2022/12/10 07:14:45;;;;;;;;;;;;;;;;;;4989467;28;20275;-54
2022/12/10 07:17:11;;;;;;;;;;;;;;;;;;5000231;28;19922;-54
2022/12/10 07:19:37;;;;;;;;;;;;;;;;;;4954214;28;19923;-53
2022/12/10 07:22:03;;;;;;;;;;;;;;;;;;4961434;28;19925;-55
2022/12/10 07:24:28;;;;;;;;;;;;;;;;;;4952641;28;19989;-53
2022/12/10 07:26:54;;;;;;;;;;;;;;;;;;4984856;28;19925;-53
2022/12/10 07:29:20;;;;;;;;;;;;;;;;;;4979589;28;19936;-52
2022/12/10 07:31:47;;;;;;;;;;;;;;;;;;4954621;28;19926;-53
2022/12/10 07:34:13;;;;;;;;;;;;;;;;;;4976014;28;20413;-53
2022/12/10 07:36:39;;;;;;;;;;;;;;;;;;4985199;28;20350;-55
2022/12/10 07:39:05;;;;;;;;;;;;;;;;;;4962522;28;20472;-53
2022/12/10 07:41:31;;;;;;;;;;;;;;;;;;4971353;28;19933;-53
2022/12/10 07:43:57;;;;;;;;;;;;;;;;;;4981149;28;20332;-53
2022/12/10 07:46:23;;;;;;;;;;;;;;;;;;4983852;28;20089;-54
2022/12/10 07:48:49;;;;;;;;;;;;;;;;;;4980282;28;19930;-55
2022/12/10 07:51:15;;;;;;;;;;;;;;;;;;4984167;28;20071;-54
2022/12/10 07:53:41;;;;;;;;;;;;;;;;;;4986077;28;20319;-53
2022/12/10 07:56:07;;;;;;;;;;;;;;;;;;4961624;28;19918;-53
2022/12/10 07:58:33;;;;;;;;;;;;;;;;;;4952705;28;20354;-53
2022/12/10 08:00:58;;;;;;;;;;;;;;;;;;4970859;28;20299;-53
2022/12/10 08:03:24;;;;;;;;;;;;;;;;;;4903563;28;19973;-54
2022/12/10 08:05:50;;;;;;;;;;;;;;;;;;4945374;28;19983;-54
2022/12/10 08:08:16;;;;;;;;;;;;;;;;;;4937855;28;19925;-54
2022/12/10 08:10:42;;;;;;;;;;;;;;;;;;4959946;28;19925;-54
2022/12/10 08:13:08;;;;;;;;;;;;;;;;;;4932866;28;20277;-53
2022/12/10 08:15:34;;;;;;;;;;;;;;;;;;4951481;28;19948;-54
2022/12/10 08:18:00;;;;;;;;;;;;;;;;;;4953873;28;19914;-53
2022/12/10 08:20:25;;;;;;;;;;;;;;;;;;4953035;28;20361;-54
2022/12/10 08:22:51;;;;;;;;;;;;;;;;;;4944563;28;19918;-55
2022/12/10 08:25:17;;;;;;;;;;;;;;;;;;4947910;28;20325;-55
2022/12/10 08:27:43;;;;;;;;;;;;;;;;;;4952841;28;19928;-52
2022/12/10 08:30:09;;;;;;;;;;;;;;;;;;4970361;28;19923;-54
2022/12/10 08:32:35;;;;;;;;;;;;;;;;;;4958594;28;19928;-53
2022/12/10 08:35:01;;;;;;;;;;;;;;;;;;4949096;28;19923;-55
2022/12/10 08:37:26;;;;;;;;;;;;;;;;;;4939783;28;20033;-55
2022/12/10 08:39:52;;;;;;;;;;;;;;;;;;4932365;28;19935;-53
2022/12/10 08:42:18;;;;;;;;;;;;;;;;;;4942467;28;19926;-53
2022/12/10 08:44:44;;;;;;;;;;;;;;;;;;4936380;28;19924;-55
2022/12/10 08:47:10;;;;;;;;;;;;;;;;;;4958079;28;19927;-53
2022/12/10 08:49:36;;;;;;;;;;;;;;;;;;4938008;28;19965;-54
2022/12/10 08:52:02;;;;;;;;;;;;;;;;;;4940294;28;20379;-56
2022/12/10 08:54:28;;;;;;;;;;;;;;;;;;4941507;28;19959;-56
2022/12/10 08:56:53;;;;;;;;;;;;;;;;;;4935736;28;19934;-56
2022/12/10 08:59:19;;;;;;;;;;;;;;;;;;4932486;28;19917;-55
2022/12/10 09:01:45;;;;;;;;;;;;;;;;;;4943761;28;20033;-54
2022/12/10 09:04:12;;;;;;;;;;;;;;;;;;4934842;28;20310;-54
2022/12/10 09:06:38;;;;;;;;;;;;;;;;;;4935490;28;20025;-53
2022/12/10 09:09:04;;;;;;;;;;;;;;;;;;4937055;28;19910;-56
2022/12/10 09:11:30;;;;;;;;;;;;;;;;;;4923877;28;19922;-54
2022/12/10 09:13:55;;;;;;;;;;;;;;;;;;4940402;28;19986;-55
2022/12/10 09:16:21;;;;;;;;;;;;;;;;;;4946597;28;19926;-54
2022/12/10 09:18:47;;;;;;;;;;;;;;;;;;4956061;28;19959;-55
2022/12/10 09:21:13;;;;;;;;;;;;;;;;;;4935814;28;20398;-54
2022/12/10 09:23:39;;;;;;;;;;;;;;;;;;4945188;28;19914;-54
2022/12/10 09:26:05;;;;;;;;;;;;;;;;;;4930540;28;20044;-55
2022/12/10 09:28:31;;;;;;;;;;;;;;;;;;4959488;28;19962;-56
2022/12/10 09:30:57;;;;;;;;;;;;;;;;;;4942338;28;19921;-56
2022/12/10 09:33:22;;;;;;;;;;;;;;;;;;4996445;28;19925;-54
2022/12/10 09:35:48;;;;;;;;;;;;;;;;;;4991555;28;20400;-54
2022/12/10 09:38:14;;;;;;;;;;;;;;;;;;4960131;28;19976;-56
2022/12/10 09:40:40;;;;;;;;;;;;;;;;;;4971811;28;19961;-54
2022/12/10 09:43:06;;;;;;;;;;;;;;;;;;4981727;28;19944;-54
2022/12/10 09:45:32;;;;;;;;;;;;;;;;;;5001150;28;20020;-54
2022/12/10 09:47:58;;;;;;;;;;;;;;;;;;5006873;28;19929;-55
2022/12/10 09:50:24;;;;;;;;;;;;;;;;;;4991279;28;19925;-56
2022/12/10 09:52:50;;;;;;;;;;;;;;;;;;4965905;28;19964;-54
2022/12/10 09:55:16;;;;;;;;;;;;;;;;;;4992259;28;19917;-55
2022/12/10 09:57:42;;;;;;;;;;;;;;;;;;4984682;28;19979;-55
2022/12/10 10:00:08;;;;;;;;;;;;;;;;;;4955568;28;19926;-54
2022/12/10 10:02:34;;;;;;;;;;;;;;;;;;4983018;28;20048;-56
2022/12/10 10:05:00;;;;;;;;;;;;;;;;;;4986739;28;20004;-55
2022/12/10 10:07:26;;;;;;;;;;;;;;;;;;4991426;28;19933;-54
2022/12/10 10:09:51;;;;;;;;;;;;;;;;;;4992603;28;19921;-55
2022/12/10 10:12:17;;;;;;;;;;;;;;;;;;4987461;28;20506;-54
2022/12/10 10:14:43;;;;;;;;;;;;;;;;;;4989405;28;19919;-54
2022/12/10 10:17:09;;;;;;;;;;;;;;;;;;5000388;28;19921;-55
2022/12/10 10:19:37;;;;;;;;;;;;;;;;;;5006105;28;20384;-54
2022/12/10 10:22:03;;;;;;;;;;;;;;;;;;4993092;28;19925;-55
2022/12/10 10:24:29;;;;;;;;;;;;;;;;;;4996830;28;19921;-57
2022/12/10 10:26:55;;;;;;;;;;;;;;;;;;4993642;28;19974;-56
2022/12/10 10:29:20;;;;;;;;;;;;;;;;;;4997426;28;19929;-56
2022/12/10 10:31:46;;;;;;;;;;;;;;;;;;4968312;28;20579;-56
2022/12/10 10:34:12;;;;;;;;;;;;;;;;;;4992202;28;19925;-55
2022/12/10 10:36:38;;;;;;;;;;;;;;;;;;4994445;28;19929;-55
2022/12/10 10:39:04;;;;;;;;;;;;;;;;;;4967772;28;20151;-54
2022/12/10 10:41:30;;;;;;;;;;;;;;;;;;4955589;28;20330;-55
2022/12/10 10:43:56;;;;;;;;;;;;;;;;;;4954231;28;20035;-54
2022/12/10 10:46:21;;;;;;;;;;;;;;;;;;4981011;28;19945;-54
2022/12/10 10:48:47;;;;;;;;;;;;;;;;;;4981056;28;19941;-55
2022/12/10 10:51:18;;;;;;;;;;;;;;;;;;4982245;28;20039;-55
2022/12/10 10:53:44;;;;;;;;;;;;;;;;;;4968399;28;20616;-55
2022/12/10 10:56:11;;;;;;;;;;;;;;;;;;4981142;28;20046;-54
2022/12/10 10:58:37;;;;;;;;;;;;;;;;;;4944493;28;19942;-54
2022/12/10 11:01:03;;;;;;;;;;;;;;;;;;4975515;28;19965;-55
2022/12/10 11:03:29;;;;;;;;;;;;;;;;;;4988527;28;19924;-54
2022/12/10 11:05:55;;;;;;;;;;;;;;;;;;4988161;28;19925;-55
2022/12/10 11:08:21;;;;;;;;;;;;;;;;;;4967278;28;20652;-55
2022/12/10 11:10:47;;;;;;;;;;;;;;;;;;4986308;28;20272;-55
2022/12/10 11:13:12;;;;;;;;;;;;;;;;;;4975931;28;19985;-55
2022/12/10 11:15:41;;;;;;;;;;;;;;;;;;4967199;28;19980;-55
2022/12/10 11:18:07;;;;;;;;;;;;;;;;;;4971375;28;20011;-55
2022/12/10 11:20:33;;;;;;;;;;;;;;;;;;4973675;28;19932;-53
2022/12/10 11:22:59;;;;;;;;;;;;;;;;;;4980425;28;19926;-54
2022/12/10 11:25:25;;;;;;;;;;;;;;;;;;4971293;28;20722;-54
2022/12/10 11:27:51;;;;;;;;;;;;;;;;;;4980641;28;19932;-57
2022/12/10 11:30:19;;;;;;;;;;;;;;;;;;4980597;28;20243;-56
2022/12/10 11:32:45;;;;;;;;;;;;;;;;;;4989422;28;19925;-54
2022/12/10 11:35:11;;;;;;;;;;;;;;;;;;4965533;28;19932;-56
2022/12/10 11:37:37;;;;;;;;;;;;;;;;;;4982011;28;20440;-54
2022/12/10 11:40:11;;;;;;;;;;;;;;;;;;5027431;27;19935;-55
2022/12/10 11:42:37;;;;;;;;;;;;;;;;;;5017921;28;19931;-53
2022/12/10 11:45:03;;;;;;;;;;;;;;;;;;5028760;28;20329;-56
2022/12/10 11:47:29;;;;;;;;;;;;;;;;;;5025247;28;20076;-55
2022/12/10 11:49:55;;;;;;;;;;;;;;;;;;5013525;28;19925;-53
2022/12/10 11:52:20;;;;;;;;;;;;;;;;;;5031091;28;20271;-53
2022/12/10 11:54:46;;;;;;;;;;;;;;;;;;5040169;28;19950;-53
2022/12/10 11:57:12;;;;;;;;;;;;;;;;;;5041750;28;19960;-53
2022/12/10 11:59:38;;;;;;;;;;;;;;;;;;5025292;28;19928;-53
2022/12/10 12:02:04;;;;;;;;;;;;;;;;;;5000090;28;19975;-53
2022/12/10 12:04:30;;;;;;;;;;;;;;;;;;5009658;28;19921;-54
2022/12/10 12:06:56;;;;;;;;;;;;;;;;;;4996907;28;19931;-53
2022/12/10 12:09:21;;;;;;;;;;;;;;;;;;5035768;28;20370;-53
2022/12/10 12:11:47;;;;;;;;;;;;;;;;;;5024665;28;20093;-53
2022/12/10 12:14:13;;;;;;;;;;;;;;;;;;5022992;28;19933;-55
2022/12/10 12:16:39;;;;;;;;;;;;;;;;;;5016688;28;20025;-54
2022/12/10 12:19:05;;;;;;;;;;;;;;;;;;5020220;28;20433;-53
2022/12/10 12:21:31;;;;;;;;;;;;;;;;;;4990178;28;19922;-54
2022/12/10 12:23:57;;;;;;;;;;;;;;;;;;5003874;28;20008;-54
2022/12/10 12:26:23;;;;;;;;;;;;;;;;;;4980227;28;19954;-54
2022/12/10 12:28:49;;;;;;;;;;;;;;;;;;4998762;28;20018;-54
2022/12/10 12:31:14;;;;;;;;;;;;;;;;;;5010365;28;19926;-53
2022/12/10 12:33:40;;;;;;;;;;;;;;;;;;5006166;28;19918;-54
2022/12/10 12:36:06;;;;;;;;;;;;;;;;;;5000336;28;20409;-52
2022/12/10 12:38:33;;;;;;;;;;;;;;;;;;4999994;28;19929;-54
2022/12/10 12:40:59;;;;;;;;;;;;;;;;;;4987010;28;20008;-53
2022/12/10 12:43:24;;;;;;;;;;;;;;;;;;4994638;28;21247;-53
2022/12/10 12:45:50;;;;;;;;;;;;;;;;;;5002934;28;19953;-54
2022/12/10 12:48:16;;;;;;;;;;;;;;;;;;4994046;28;19926;-55
2022/12/10 12:50:42;;;;;;;;;;;;;;;;;;4988536;28;19952;-54
2022/12/10 12:53:08;;;;;;;;;;;;;;;;;;4965471;28;19922;-53
2022/12/10 12:55:34;;;;;;;;;;;;;;;;;;4966134;28;20912;-53
2022/12/10 12:58:00;;;;;;;;;;;;;;;;;;4978798;28;20233;-52
2022/12/10 13:00:26;;;;;;;;;;;;;;;;;;4978600;28;19922;-52
2022/12/10 13:02:51;;;;;;;;;;;;;;;;;;4984497;28;20038;-55
2022/12/10 13:05:17;;;;;;;;;;;;;;;;;;4974351;28;20286;-53
2022/12/10 13:07:43;;;;;;;;;;;;;;;;;;4966245;28;20029;-53
2022/12/10 13:10:09;;;;;;;;;;;;;;;;;;4965824;28;19921;-53
2022/12/10 13:12:35;;;;;;;;;;;;;;;;;;5000928;28;19926;-54
2022/12/10 13:15:01;;;;;;;;;;;;;;;;;;4977656;28;20451;-52
2022/12/10 13:17:27;;;;;;;;;;;;;;;;;;4956024;28;20281;-53
2022/12/10 13:19:54;;;;;;;;;;;;;;;;;;4969827;28;20032;-53
2022/12/10 13:22:19;;;;;;;;;;;;;;;;;;4990927;28;19921;-54
2022/12/10 13:24:45;;;;;;;;;;;;;;;;;;4973968;28;19933;-53
2022/12/10 13:27:11;;;;;;;;;;;;;;;;;;4958524;28;21066;-53
2022/12/10 13:29:37;;;;;;;;;;;;;;;;;;4967723;28;20176;-52
2022/12/10 13:32:03;;;;;;;;;;;;;;;;;;4982483;28;19932;-53
2022/12/10 13:34:29;;;;;;;;;;;;;;;;;;4977171;28;20427;-52
2022/12/10 13:36:55;;;;;;;;;;;;;;;;;;4960446;28;20011;-53
2022/12/10 13:39:21;;;;;;;;;;;;;;;;;;4994650;28;19941;-52
2022/12/10 13:44:32;;;;;;;;;;;;;;;;;;4980945;28;19940;-53
2022/12/10 13:46:58;;;;;;;;;;;;;;;;;;4977761;28;20216;-54
2022/12/10 13:49:24;;;;;;;;;;;;;;;;;;4956727;28;20454;-55
2022/12/10 13:51:50;;;;;;;;;;;;;;;;;;4969171;28;20016;-52
2022/12/10 13:54:16;;;;;;;;;;;;;;;;;;4990073;28;19995;-54
2022/12/10 13:56:41;;;;;;;;;;;;;;;;;;4979822;28;19998;-54
2022/12/10 13:59:09;;;;;;;;;;;;;;;;;;4966013;28;19926;-54
2022/12/10 14:01:35;;;;;;;;;;;;;;;;;;4971603;28;20583;-55
2022/12/10 14:04:00;;;;;;;;;;;;;;;;;;5007237;28;19968;-52
2022/12/10 14:06:26;;;;;;;;;;;;;;;;;;4972217;28;19921;-52
2022/12/10 14:08:52;;;;;;;;;;;;;;;;;;4990507;28;20397;-54
2022/12/10 14:11:18;;;;;;;;;;;;;;;;;;4975846;28;19923;-52
2022/12/10 14:13:44;;;;;;;;;;;;;;;;;;5003986;28;19922;-55
2022/12/10 14:16:10;;;;;;;;;;;;;;;;;;4972697;28;20445;-55
2022/12/10 14:18:36;;;;;;;;;;;;;;;;;;4997791;28;19929;-55
2022/12/10 14:21:02;;;;;;;;;;;;;;;;;;4980045;28;19933;-55
2022/12/10 14:23:35;;;;;;;;;;;;;;;;;;4984887;28;19922;-55
2022/12/10 14:26:01;;;;;;;;;;;;;;;;;;4962658;28;20329;-55
2022/12/10 14:28:27;;;;;;;;;;;;;;;;;;4970533;28;20827;-55
2022/12/10 14:30:53;;;;;;;;;;;;;;;;;;4967976;28;19929;-57
2022/12/10 14:33:19;;;;;;;;;;;;;;;;;;4982252;28;19940;-56
2022/12/10 14:35:45;;;;;;;;;;;;;;;;;;4965110;28;19925;-57
2022/12/10 14:38:10;;;;;;;;;;;;;;;;;;4970850;28;19944;-56
2022/12/10 14:40:36;;;;;;;;;;;;;;;;;;4977318;28;20375;-56
2022/12/10 14:43:02;;;;;;;;;;;;;;;;;;4955574;28;19925;-53
2022/12/10 14:45:28;;;;;;;;;;;;;;;;;;4977340;28;19922;-56
2022/12/10 14:47:54;;;;;;;;;;;;;;;;;;4985005;28;20354;-55
2022/12/10 14:50:20;;;;;;;;;;;;;;;;;;4960107;28;19945;-54
2022/12/10 14:52:46;;;;;;;;;;;;;;;;;;4982618;28;19962;-56
2022/12/10 14:55:11;;;;;;;;;;;;;;;;;;4950816;28;19932;-55
2022/12/10 14:57:37;;;;;;;;;;;;;;;;;;4975871;28;20004;-55
2022/12/10 15:00:03;;;;;;;;;;;;;;;;;;4985412;28;19929;-57
2022/12/10 15:02:29;;;;;;;;;;;;;;;;;;4977626;28;19921;-56
2022/12/10 15:04:55;;;;;;;;;;;;;;;;;;4981196;28;19925;-57
2022/12/10 15:07:21;;;;;;;;;;;;;;;;;;4989125;28;21342;-55
2022/12/10 15:09:47;;;;;;;;;;;;;;;;;;4972206;28;20095;-55
2022/12/10 15:12:13;;;;;;;;;;;;;;;;;;4992839;28;20516;-52
2022/12/10 15:14:39;;;;;;;;;;;;;;;;;;4995559;28;20476;-55
2022/12/10 15:17:04;;;;;;;;;;;;;;;;;;4985184;28;19922;-55
2022/12/10 15:19:32;;;;;;;;;;;;;;;;;;4999568;28;19979;-55
2022/12/10 15:21:57;;;;;;;;;;;;;;;;;;4996681;28;20059;-54
2022/12/10 15:24:23;;;;;;;;;;;;;;;;;;5005360;28;19913;-55
2022/12/10 15:26:49;;;;;;;;;;;;;;;;;;4991331;28;20370;-54
2022/12/10 15:29:15;;;;;;;;;;;;;;;;;;4990459;28;19922;-54
2022/12/10 15:31:41;;;;;;;;;;;;;;;;;;4977793;28;19917;-54
2022/12/10 15:34:07;;;;;;;;;;;;;;;;;;4999050;28;19986;-54
2022/12/10 15:36:33;;;;;;;;;;;;;;;;;;4994658;28;19925;-54
2022/12/10 15:38:59;;;;;;;;;;;;;;;;;;4992450;28;19929;-53
2022/12/10 15:41:25;;;;;;;;;;;;;;;;;;5004766;28;19921;-55
2022/12/10 15:43:50;;;;;;;;;;;;;;;;;;4984012;28;20042;-54
2022/12/10 15:46:16;;;;;;;;;;;;;;;;;;4963633;28;19922;-56
2022/12/10 15:48:42;;;;;;;;;;;;;;;;;;4984537;28;20385;-55
2022/12/10 15:51:08;;;;;;;;;;;;;;;;;;4986273;28;19926;-55
2022/12/10 15:53:34;;;;;;;;;;;;;;;;;;4994753;28;19975;-55
2022/12/10 15:56:00;;;;;;;;;;;;;;;;;;4979372;28;19929;-54
2022/12/10 15:58:26;;;;;;;;;;;;;;;;;;4976792;28;20049;-56
2022/12/10 16:00:51;;;;;;;;;;;;;;;;;;4980262;28;19922;-54
2022/12/10 16:03:19;;;;;;;;;;;;;;;;;;4996927;28;20392;-54
2022/12/10 16:05:46;;;;;;;;;;;;;;;;;;4988019;28;20012;-55
2022/12/10 16:08:12;;;;;;;;;;;;;;;;;;4991513;28;20452;-54
2022/12/10 16:10:38;;;;;;;;;;;;;;;;;;4980866;28;19929;-56
2022/12/10 16:13:04;;;;;;;;;;;;;;;;;;4979353;28;19948;-54
2022/12/10 16:15:30;;;;;;;;;;;;;;;;;;4985120;28;19920;-55
2022/12/10 16:17:56;;;;;;;;;;;;;;;;;;4991016;28;21074;-55
2022/12/10 16:20:22;;;;;;;;;;;;;;;;;;4998756;28;19952;-54
2022/12/10 16:22:48;;;;;;;;;;;;;;;;;;4995533;28;19918;-54
2022/12/10 16:25:14;;;;;;;;;;;;;;;;;;4988532;28;19933;-55
2022/12/10 16:27:42;;;;;;;;;;;;;;;;;;5004447;28;19925;-56
2022/12/10 16:30:08;;;;;;;;;;;;;;;;;;4991083;28;19929;-56
2022/12/10 16:32:34;;;;;;;;;;;;;;;;;;4993009;28;26581;-54
2022/12/10 16:35:00;;;;;;;;;;;;;;;;;;4977116;28;19918;-54
2022/12/10 16:37:26;;;;;;;;;;;;;;;;;;5002883;28;20412;-54
2022/12/10 16:39:52;;;;;;;;;;;;;;;;;;4975538;28;19933;-55
2022/12/10 16:42:17;;;;;;;;;;;;;;;;;;4994870;28;19925;-56
2022/12/10 16:44:43;;;;;;;;;;;;;;;;;;4986433;28;20784;-55
2022/12/10 16:47:09;;;;;;;;;;;;;;;;;;4984751;28;20016;-54
2022/12/10 16:49:35;;;;;;;;;;;;;;;;;;4987508;28;20795;-53
2022/12/10 16:52:01;;;;;;;;;;;;;;;;;;4991123;28;20016;-55
2022/12/10 16:54:27;;;;;;;;;;;;;;;;;;5000589;28;19921;-54
2022/12/10 16:56:53;;;;;;;;;;;;;;;;;;4992985;28;19999;-54